createdAt,value
2018-01-02T00:01:17.096Z,6.90
2018-01-02T00:03:44.694Z,6.92
2018-01-02T00:06:12.361Z,6.90
2018-01-02T00:08:39.970Z,6.83
2018-01-02T00:11:07.608Z,6.84
2018-01-02T00:13:35.202Z,6.79
2018-01-02T00:16:02.802Z,6.80
2018-01-02T00:18:30.419Z,6.79
2018-01-02T00:20:58.029Z,6.82
2018-01-02T00:23:25.651Z,6.82
2018-01-02T00:25:53.248Z,6.85
2018-01-02T00:28:21.716Z,6.81
2018-01-02T00:30:49.340Z,6.79
2018-01-02T00:33:16.940Z,6.84
2018-01-02T00:35:44.576Z,6.92
2018-01-02T00:38:12.166Z,6.87
2018-01-02T00:40:40.048Z,6.85
2018-01-02T00:43:08.022Z,6.84
2018-01-02T00:45:35.622Z,6.83
2018-01-02T00:48:03.293Z,6.79
2018-01-02T00:50:30.888Z,6.80
2018-01-02T00:52:58.470Z,6.82
2018-01-02T00:55:26.090Z,6.79
2018-01-02T00:57:53.712Z,6.78
2018-01-02T01:00:21.364Z,6.78
2018-01-02T01:02:48.955Z,6.71
2018-01-02T01:05:16.544Z,6.77
2018-01-02T01:07:44.158Z,6.76
2018-01-02T01:10:12.011Z,6.70
2018-01-02T01:12:39.655Z,6.71
2018-01-02T01:15:07.246Z,6.63
2018-01-02T01:17:34.879Z,6.49
2018-01-02T01:20:02.565Z,6.48
2018-01-02T01:22:31.346Z,6.47
2018-01-02T01:24:58.982Z,6.23
2018-01-02T01:27:26.578Z,6.08
2018-01-02T01:29:54.487Z,6.05
2018-01-02T01:32:22.091Z,6.07
2018-01-02T01:34:49.976Z,5.93
2018-01-02T01:37:17.620Z,5.84
2018-01-02T01:39:45.203Z,5.90
2018-01-02T01:42:12.788Z,6.04
2018-01-02T01:44:40.723Z,6.07
2018-01-02T01:47:08.316Z,6.12
2018-01-02T01:49:36.030Z,6.15
2018-01-02T01:52:03.915Z,6.13
2018-01-02T01:54:31.533Z,6.15
2018-01-02T01:56:59.137Z,6.18
2018-01-02T01:59:26.716Z,6.19
2018-01-02T02:01:54.406Z,6.18
2018-01-02T02:04:22.034Z,6.21
2018-01-02T02:06:49.619Z,6.22
2018-01-02T02:09:17.552Z,6.26
2018-01-02T02:11:45.123Z,6.25
2018-01-02T02:14:12.714Z,6.25
2018-01-02T02:16:40.325Z,6.21
2018-01-02T02:19:08.208Z,6.23
2018-01-02T02:21:35.830Z,6.12
2018-01-02T02:24:10.151Z,6.12
2018-01-02T02:26:37.778Z,6.07
2018-01-02T02:29:05.391Z,6.02
2018-01-02T02:31:33.286Z,5.99
2018-01-02T02:34:00.863Z,5.97
2018-01-02T02:36:28.542Z,5.95
2018-01-02T02:38:56.141Z,6.01
2018-01-02T02:41:23.724Z,6.01
2018-01-02T02:43:51.362Z,6.07
2018-01-02T02:46:18.961Z,6.13
2018-01-02T02:48:46.585Z,6.08
2018-01-02T02:51:14.163Z,6.08
2018-01-02T02:53:41.761Z,6.01
2018-01-02T02:56:09.364Z,6.02
2018-01-02T02:58:37.280Z,6.03
2018-01-02T03:01:04.892Z,6.04
2018-01-02T03:03:32.498Z,6.08
2018-01-02T03:06:00.093Z,6.06
2018-01-02T03:08:27.701Z,6.06
2018-01-02T03:10:55.855Z,5.94
2018-01-02T03:13:23.485Z,5.95
2018-01-02T03:15:51.065Z,6.02
2018-01-02T03:18:18.653Z,6.07
2018-01-02T03:20:46.291Z,6.03
2018-01-02T03:23:14.217Z,6.08
2018-01-02T03:25:41.845Z,5.95
2018-01-02T03:28:09.460Z,5.96
2018-01-02T03:30:37.064Z,5.94
2018-01-02T03:33:04.683Z,5.92
2018-01-02T03:35:32.271Z,5.77
2018-01-02T03:38:00.200Z,5.69
2018-01-02T03:40:27.784Z,5.72
2018-01-02T03:42:55.626Z,5.81
2018-01-02T03:45:23.247Z,5.79
2018-01-02T03:47:50.851Z,5.84
2018-01-02T03:50:18.496Z,5.83
2018-01-02T03:52:46.095Z,5.81
2018-01-02T03:55:13.700Z,5.81
2018-01-02T03:57:41.317Z,5.85
2018-01-02T04:00:08.920Z,5.76
2018-01-02T04:02:36.540Z,5.77
2018-01-02T04:05:04.178Z,5.79
2018-01-02T04:07:31.758Z,5.82
2018-01-02T04:09:59.395Z,5.83
2018-01-02T04:12:27.268Z,5.84
2018-01-02T04:14:54.890Z,5.83
2018-01-02T04:17:22.484Z,5.83
2018-01-02T04:19:50.048Z,5.83
2018-01-02T04:22:17.660Z,5.83
2018-01-02T04:24:45.264Z,5.81
2018-01-02T04:27:12.890Z,5.84
2018-01-02T04:29:40.484Z,5.85
2018-01-02T04:32:08.089Z,5.84
2018-01-02T04:34:35.709Z,5.83
2018-01-02T04:37:03.698Z,5.85
2018-01-02T04:39:31.336Z,5.85
2018-01-02T04:41:58.925Z,5.86
2018-01-02T04:44:26.538Z,5.84
2018-01-02T04:46:54.141Z,5.84
2018-01-02T04:49:21.723Z,5.86
2018-01-02T04:51:49.340Z,5.88
2018-01-02T04:54:17.232Z,5.86
2018-01-02T04:56:44.855Z,5.87
2018-01-02T04:59:12.765Z,5.88
2018-01-02T05:01:40.389Z,5.96
2018-01-02T05:04:08.043Z,5.96
2018-01-02T05:06:35.627Z,5.99
2018-01-02T05:09:03.243Z,5.92
2018-01-02T05:11:30.860Z,5.90
2018-01-02T05:13:58.451Z,5.88
2018-01-02T05:16:26.105Z,5.88
2018-01-02T05:18:53.725Z,5.98
2018-01-02T05:21:21.314Z,5.99
2018-01-02T05:23:48.940Z,5.92
2018-01-02T05:26:16.522Z,5.88
2018-01-02T05:28:44.163Z,5.86
2018-01-02T05:31:11.742Z,5.90
2018-01-02T05:33:39.375Z,5.90
2018-01-02T05:36:07.300Z,5.88
2018-01-02T05:38:34.883Z,5.93
2018-01-02T05:41:02.517Z,5.91
2018-01-02T05:43:30.392Z,5.91
2018-01-02T05:45:58.172Z,5.93
2018-01-02T05:48:25.801Z,5.96
2018-01-02T05:50:53.797Z,5.97
2018-01-02T05:53:21.425Z,6.00
2018-01-02T05:55:49.023Z,6.02
2018-01-02T05:58:16.612Z,6.03
2018-01-02T06:00:44.221Z,6.04
2018-01-02T06:03:11.812Z,6.08
2018-01-02T06:05:39.432Z,6.10
2018-01-02T06:08:07.034Z,6.12
2018-01-02T06:10:34.864Z,6.15
2018-01-02T06:13:02.503Z,6.16
2018-01-02T06:15:30.121Z,6.15
2018-01-02T06:17:57.759Z,6.13
2018-01-02T06:20:25.648Z,6.13
2018-01-02T06:22:53.240Z,6.13
2018-01-02T06:25:20.880Z,6.18
2018-01-02T06:27:48.483Z,6.12
2018-01-02T06:30:16.516Z,6.21
2018-01-02T06:32:44.105Z,6.18
2018-01-02T06:35:11.715Z,6.11
2018-01-02T06:37:39.399Z,6.11
2018-01-02T06:40:06.993Z,6.18
2018-01-02T06:42:34.621Z,6.05
2018-01-02T06:45:02.208Z,6.07
2018-01-02T06:47:29.843Z,6.04
2018-01-02T06:49:57.507Z,5.98
2018-01-02T06:52:25.096Z,5.99
2018-01-02T06:54:52.731Z,5.96
2018-01-02T06:57:20.696Z,5.95
2018-01-02T06:59:48.313Z,5.96
2018-01-02T07:02:15.927Z,5.96
2018-01-02T07:04:43.502Z,5.88
2018-01-02T07:07:11.141Z,5.76
2018-01-02T07:09:38.726Z,5.82
2018-01-02T07:12:06.355Z,5.81
2018-01-02T07:14:35.757Z,5.70
2018-01-02T07:17:03.356Z,5.64
2018-01-02T07:19:30.975Z,5.65
2018-01-02T07:21:58.570Z,5.65
2018-01-02T07:24:26.452Z,5.65
2018-01-02T07:26:54.128Z,5.64
2018-01-02T07:29:21.726Z,5.66
2018-01-02T07:31:49.344Z,5.65
2018-01-02T07:34:16.924Z,5.68
2018-01-02T07:36:44.521Z,5.69
2018-01-02T07:39:12.407Z,5.69
2018-01-02T07:41:40.013Z,5.78
2018-01-02T07:44:07.635Z,5.75
2018-01-02T07:46:35.233Z,5.79
2018-01-02T07:49:02.852Z,5.80
2018-01-02T07:51:30.475Z,5.76
2018-01-02T07:53:58.073Z,5.77
2018-01-02T07:56:26.035Z,5.83
2018-01-02T07:58:53.629Z,5.81
2018-01-02T08:01:21.362Z,5.85
2018-01-02T08:03:48.984Z,5.87
2018-01-02T08:06:16.585Z,5.92
2018-01-02T08:08:44.243Z,5.96
2018-01-02T08:11:12.123Z,5.99
2018-01-02T08:13:39.832Z,6.01
2018-01-02T08:16:07.764Z,5.96
2018-01-02T08:18:35.343Z,5.98
2018-01-02T08:21:03.026Z,6.05
2018-01-02T08:23:30.607Z,6.07
2018-01-02T08:25:58.252Z,6.09
2018-01-02T08:28:25.886Z,6.10
2018-01-02T08:30:53.487Z,6.14
2018-01-02T08:33:21.172Z,6.17
2018-01-02T08:35:48.787Z,6.16
2018-01-02T08:38:16.375Z,6.18
2018-01-02T08:40:44.388Z,6.18
2018-01-02T08:43:12.018Z,6.14
2018-01-02T08:45:39.660Z,6.14
2018-01-02T08:48:07.237Z,6.14
2018-01-02T08:50:34.906Z,6.10
2018-01-02T08:53:02.525Z,6.12
2018-01-02T08:55:31.844Z,6.11
2018-01-02T08:57:59.979Z,6.14
2018-01-02T09:00:27.656Z,6.24
2018-01-02T09:02:55.283Z,6.34
2018-01-02T09:05:23.276Z,6.46
2018-01-02T09:07:50.888Z,6.53
2018-01-02T09:10:18.528Z,6.57
2018-01-02T09:12:47.958Z,6.59
2018-01-02T09:15:15.615Z,6.61
2018-01-02T09:17:43.286Z,6.62
2018-01-02T09:20:10.901Z,6.51
2018-01-02T09:22:38.987Z,6.28
2018-01-02T09:25:06.620Z,6.31
2018-01-02T09:27:34.216Z,6.33
2018-01-02T09:30:01.856Z,6.32
2018-01-02T09:32:29.451Z,6.38
2018-01-02T09:34:57.144Z,6.39
2018-01-02T09:37:24.758Z,6.47
2018-01-02T09:39:52.422Z,6.50
2018-01-02T09:42:20.064Z,6.47
2018-01-02T09:44:47.700Z,6.56
2018-01-02T09:47:15.326Z,6.54
2018-01-02T09:49:42.942Z,6.54
2018-01-02T09:52:10.561Z,6.55
2018-01-02T09:54:38.185Z,6.45
2018-01-02T09:57:05.781Z,6.46
2018-01-02T09:59:33.426Z,6.29
2018-01-02T10:02:01.119Z,6.37
2018-01-02T10:04:28.750Z,6.41
2018-01-02T10:06:56.797Z,6.45
2018-01-02T10:09:24.404Z,6.52
2018-01-02T10:11:52.031Z,6.51
2018-01-02T10:14:19.677Z,6.41
2018-01-02T10:16:47.264Z,6.45
2018-01-02T10:19:14.906Z,6.42
2018-01-02T10:21:42.544Z,6.44
2018-01-02T10:24:10.155Z,6.55
2018-01-02T10:26:37.803Z,6.49
2018-01-02T10:29:05.468Z,6.56
2018-01-02T10:31:33.112Z,6.56
2018-01-02T10:34:00.705Z,6.54
2018-01-02T10:36:28.311Z,6.44
2018-01-02T10:38:55.942Z,6.27
2018-01-02T10:41:23.575Z,6.24
2018-01-02T10:43:51.218Z,6.11
2018-01-02T10:46:18.873Z,6.16
2018-01-02T10:48:46.513Z,6.15
2018-01-02T10:51:14.133Z,6.22
2018-01-02T10:53:41.727Z,6.18
2018-01-02T10:56:09.372Z,6.28
2018-01-02T10:58:36.996Z,6.33
2018-01-02T11:01:04.619Z,6.22
2018-01-02T11:03:32.240Z,6.43
2018-01-02T11:06:01.023Z,6.31
2018-01-02T11:08:28.687Z,6.29
2018-01-02T11:13:58.428Z,6.31
2018-01-02T11:16:26.056Z,6.27
2018-01-02T11:18:53.660Z,6.23
2018-01-02T11:21:21.888Z,6.33
2018-01-02T11:23:49.541Z,6.38
2018-01-02T11:26:17.185Z,6.41
2018-01-02T11:28:44.783Z,6.38
2018-01-02T11:31:12.399Z,6.42
2018-01-02T11:33:40.083Z,6.44
2018-01-02T11:36:07.694Z,6.39
2018-01-02T11:38:35.399Z,6.45
2018-01-02T11:41:03.055Z,6.33
2018-01-02T11:43:31.086Z,6.45
2018-01-02T11:45:58.723Z,6.47
2018-01-02T11:48:26.720Z,6.54
2018-01-02T11:50:54.375Z,6.37
2018-01-02T11:53:21.985Z,6.48
2018-01-02T11:55:49.571Z,6.30
2018-01-02T11:58:17.183Z,6.38
2018-01-02T12:00:44.817Z,6.34
2018-01-02T12:03:12.448Z,6.47
2018-01-02T12:05:40.069Z,6.54
2018-01-02T12:08:07.688Z,6.58
2018-01-02T12:10:35.410Z,6.58
2018-01-02T12:13:03.090Z,6.66
2018-01-02T12:15:30.728Z,6.82
2018-01-02T12:17:58.334Z,6.81
2018-01-02T12:20:26.344Z,6.80
2018-01-02T12:22:53.983Z,6.80
2018-01-02T12:25:21.579Z,6.68
2018-01-02T12:27:49.229Z,6.71
2018-01-02T12:30:16.844Z,6.65
2018-01-02T12:32:44.456Z,6.75
2018-01-02T12:35:12.268Z,6.86
2018-01-02T12:37:39.872Z,7.09
2018-01-02T12:40:07.847Z,7.24
2018-01-02T12:42:35.448Z,7.30
2018-01-02T12:45:03.064Z,7.17
2018-01-02T12:47:30.724Z,7.16
2018-01-02T12:49:58.329Z,7.10
2018-01-02T12:52:26.092Z,6.87
2018-01-02T12:54:53.711Z,6.93
2018-01-02T12:57:21.376Z,6.74
2018-01-02T12:59:48.994Z,6.72
2018-01-02T13:02:16.593Z,6.74
2018-01-02T13:04:44.265Z,6.92
2018-01-02T13:07:12.152Z,6.93
2018-01-02T13:09:39.759Z,6.92
2018-01-02T13:12:07.365Z,6.87
2018-01-02T13:14:35.004Z,6.98
2018-01-02T13:17:03.232Z,6.93
2018-01-02T13:19:30.842Z,6.85
2018-01-02T13:21:58.449Z,6.97
2018-01-02T13:24:26.327Z,6.96
2018-01-02T13:26:53.971Z,6.96
2018-01-02T13:29:21.944Z,6.99
2018-01-02T13:31:49.531Z,7.15
2018-01-02T13:34:17.201Z,7.22
2018-01-02T13:36:44.823Z,7.20
2018-01-02T13:39:12.416Z,7.18
2018-01-02T13:41:40.350Z,7.13
2018-01-02T13:44:07.944Z,7.09
2018-01-02T13:46:35.552Z,7.07
2018-01-02T13:49:03.188Z,7.13
2018-01-02T13:51:30.818Z,7.13
2018-01-02T13:53:58.459Z,7.20
2018-01-02T13:56:26.074Z,7.27
2018-01-02T13:58:53.760Z,7.29
2018-01-02T14:01:21.753Z,7.27
2018-01-02T14:03:49.343Z,7.27
2018-01-02T14:06:17.001Z,7.23
2018-01-02T14:08:44.612Z,7.16
2018-01-02T14:11:12.252Z,7.07
2018-01-02T14:13:39.884Z,6.98
2018-01-02T14:16:07.543Z,7.10
2018-01-02T14:18:35.181Z,7.23
2018-01-02T14:21:02.768Z,6.98
2018-01-02T14:23:30.408Z,6.99
2018-01-02T14:25:58.051Z,7.12
2018-01-02T14:28:26.049Z,6.92
2018-01-02T14:30:53.743Z,6.92
2018-01-02T14:33:21.360Z,6.94
2018-01-02T14:35:48.965Z,6.93
2018-01-02T14:38:16.588Z,6.95
2018-01-02T14:40:44.208Z,6.98
2018-01-02T14:43:11.879Z,7.04
2018-01-02T14:45:39.539Z,6.94
2018-01-02T14:48:07.243Z,6.98
2018-01-02T14:50:34.881Z,6.89
2018-01-02T14:53:02.508Z,6.97
2018-01-02T14:55:30.157Z,7.02
2018-01-02T14:57:57.816Z,7.05
2018-01-02T15:00:25.422Z,7.08
2018-01-02T15:02:53.041Z,6.98
2018-01-02T15:05:20.654Z,6.94
2018-01-02T15:07:48.561Z,6.86
2018-01-02T15:10:16.173Z,6.83
2018-01-02T15:12:43.813Z,6.83
2018-01-02T15:15:11.754Z,6.73
2018-01-02T15:17:39.372Z,6.73
2018-01-02T15:20:07.025Z,6.64
2018-01-02T15:22:34.628Z,6.57
2018-01-02T15:25:02.978Z,6.53
2018-01-02T15:27:30.623Z,6.48
2018-01-02T15:29:58.230Z,6.39
2018-01-02T15:32:25.893Z,6.53
2018-01-02T15:34:53.739Z,6.47
2018-01-02T15:37:21.375Z,6.53
2018-01-02T15:39:48.996Z,6.49
2018-01-02T15:42:16.859Z,6.39
2018-01-02T15:44:44.514Z,6.46
2018-01-02T15:47:12.136Z,6.46
2018-01-02T15:49:39.840Z,6.45
2018-01-02T15:52:07.481Z,6.45
2018-01-02T15:54:35.104Z,6.49
2018-01-02T15:57:02.732Z,6.50
2018-01-02T15:59:30.328Z,6.52
2018-01-02T16:01:58.273Z,6.43
2018-01-02T16:04:25.923Z,6.39
2018-01-02T16:06:53.559Z,6.34
2018-01-02T16:09:21.202Z,6.28
2018-01-02T16:11:48.795Z,6.28
2018-01-02T16:14:16.471Z,6.28
2018-01-02T16:16:44.114Z,6.18
2018-01-02T16:19:11.724Z,6.26
2018-01-02T16:21:39.371Z,6.23
2018-01-02T16:24:06.989Z,6.27
2018-01-02T16:26:34.911Z,6.21
2018-01-02T16:29:02.585Z,6.18
2018-01-02T16:31:30.220Z,6.19
2018-01-02T16:33:57.856Z,6.15
2018-01-02T16:36:25.460Z,6.15
2018-01-02T16:38:53.070Z,6.15
2018-01-02T16:41:20.693Z,6.12
2018-01-02T16:43:49.055Z,6.14
2018-01-02T16:46:16.721Z,6.09
2018-01-02T16:48:44.586Z,6.16
2018-01-02T16:51:12.558Z,6.12
2018-01-02T16:53:40.198Z,6.15
2018-01-02T16:56:07.830Z,6.18
2018-01-02T16:58:35.486Z,6.14
2018-01-02T17:01:03.423Z,6.22
2018-01-02T17:03:31.025Z,6.31
2018-01-02T17:05:58.665Z,6.24
2018-01-02T17:08:26.283Z,6.27
2018-01-02T17:10:53.932Z,6.31
2018-01-02T17:13:21.569Z,6.32
2018-01-02T17:15:49.173Z,6.31
2018-01-02T17:18:16.779Z,6.35
2018-01-02T17:20:44.419Z,6.29
2018-01-02T17:23:12.485Z,6.28
2018-01-02T17:25:40.093Z,6.31
2018-01-02T17:28:07.793Z,6.31
2018-01-02T17:30:35.389Z,6.28
2018-01-02T17:33:03.045Z,6.28
2018-01-02T17:35:30.737Z,6.14
2018-01-02T17:37:58.664Z,6.16
2018-01-02T17:40:26.304Z,6.20
2018-01-02T17:42:53.898Z,6.20
2018-01-02T17:45:21.581Z,6.19
2018-01-02T17:47:49.236Z,6.18
2018-01-02T17:50:17.088Z,6.09
2018-01-02T17:52:44.747Z,6.11
2018-01-02T17:55:12.356Z,6.10
2018-01-02T17:57:40.021Z,6.11
2018-01-02T18:00:07.665Z,6.12
2018-01-02T18:02:35.613Z,6.21
2018-01-02T18:05:03.285Z,6.26
2018-01-02T18:07:30.996Z,6.21
2018-01-02T18:09:58.715Z,6.22
2018-01-02T18:12:26.366Z,6.19
2018-01-02T18:14:53.964Z,6.17
2018-01-02T18:17:21.598Z,6.15
2018-01-02T18:19:49.237Z,6.13
2018-01-02T18:22:16.883Z,6.15
2018-01-02T18:24:44.620Z,6.12
2018-01-02T18:27:12.292Z,6.10
2018-01-02T18:29:40.410Z,6.10
2018-01-02T18:32:08.024Z,6.11
2018-01-02T18:34:35.936Z,6.14
2018-01-02T18:37:03.548Z,6.17
2018-01-02T18:39:31.578Z,6.10
2018-01-02T18:41:59.398Z,6.08
2018-01-02T18:44:27.011Z,6.04
2018-01-02T18:46:54.665Z,5.98
2018-01-02T18:49:22.263Z,5.99
2018-01-02T18:51:50.198Z,6.04
2018-01-02T18:54:19.492Z,6.08
2018-01-02T18:56:47.111Z,6.03
2018-01-02T18:59:14.764Z,6.04
2018-01-02T19:01:42.369Z,6.04
2018-01-02T19:04:09.966Z,6.04
2018-01-02T19:06:37.751Z,6.04
2018-01-02T19:09:05.510Z,6.07
2018-01-02T19:11:33.553Z,6.05
2018-01-02T19:14:01.434Z,6.14
2018-01-02T19:16:29.113Z,6.17
2018-01-02T19:18:56.730Z,6.14
2018-01-02T19:21:24.409Z,6.08
2018-01-02T19:23:52.481Z,6.13
2018-01-02T19:26:20.359Z,6.09
2018-01-02T19:28:47.989Z,6.09
2018-01-02T19:31:15.629Z,6.07
2018-01-02T19:33:43.812Z,6.13
2018-01-02T19:38:45.210Z,6.04
2018-01-02T19:41:13.302Z,6.02
2018-01-02T19:43:40.958Z,6.07
2018-01-02T19:46:08.555Z,6.05
2018-01-02T19:48:36.492Z,6.07
2018-01-02T19:51:04.114Z,6.07
2018-01-02T19:53:31.801Z,6.13
2018-01-02T19:55:59.491Z,5.99
2018-01-02T19:58:27.113Z,5.98
2018-01-02T20:00:54.798Z,5.99
2018-01-02T20:03:22.439Z,6.03
2018-01-02T20:05:50.446Z,6.05
2018-01-02T20:08:18.086Z,6.04
2018-01-02T20:10:45.680Z,6.04
2018-01-02T20:13:13.344Z,5.89
2018-01-02T20:15:40.969Z,5.92
2018-01-02T20:18:14.212Z,5.95
2018-01-02T20:20:41.852Z,5.97
2018-01-02T20:23:09.481Z,5.95
2018-01-02T20:25:37.140Z,5.78
2018-01-02T20:28:04.737Z,5.84
2018-01-02T20:30:32.404Z,5.77
2018-01-02T20:33:00.269Z,5.78
2018-01-02T20:35:27.899Z,5.81
2018-01-02T20:37:55.549Z,5.73
2018-01-02T20:40:23.480Z,5.78
2018-01-02T20:42:51.116Z,5.83
2018-01-02T20:45:19.090Z,5.81
2018-01-02T20:47:47.162Z,5.78
2018-01-02T20:50:14.804Z,5.82
2018-01-02T20:52:44.141Z,5.68
2018-01-02T20:55:12.024Z,5.68
2018-01-02T20:57:39.853Z,5.65
2018-01-02T21:00:07.445Z,5.53
2018-01-02T21:02:35.071Z,5.48
2018-01-02T21:05:02.917Z,5.43
2018-01-02T21:07:31.290Z,5.51
2018-01-02T21:09:58.903Z,5.42
2018-01-02T21:12:26.760Z,5.40
2018-01-02T21:14:54.378Z,5.34
2018-01-02T21:17:22.038Z,5.27
2018-01-02T21:19:49.690Z,5.25
2018-01-02T21:22:17.286Z,5.27
2018-01-02T21:24:44.896Z,5.30
2018-01-02T21:27:12.507Z,5.32
2018-01-02T21:29:40.108Z,5.29
2018-01-02T21:32:08.057Z,5.16
2018-01-02T21:34:35.648Z,5.18
2018-01-02T21:37:03.701Z,5.14
2018-01-02T21:39:31.397Z,5.16
2018-01-02T21:41:59.022Z,5.23
2018-01-02T21:44:26.656Z,5.03
2018-01-02T21:46:54.262Z,5.17
2018-01-02T21:49:22.112Z,5.09
2018-01-02T21:51:49.740Z,5.15
2018-01-02T21:54:17.381Z,5.06
2018-01-02T21:56:45.044Z,5.15
2018-01-02T21:59:12.912Z,5.09
2018-01-02T22:01:40.851Z,5.12
2018-01-02T22:04:08.467Z,5.18
2018-01-02T22:06:36.063Z,5.21
2018-01-02T22:09:04.131Z,5.26
2018-01-02T22:11:31.737Z,5.13
2018-01-02T22:13:59.563Z,5.22
2018-01-02T22:16:27.547Z,5.09
2018-01-02T22:18:55.155Z,5.07
2018-01-02T22:21:23.035Z,5.10
2018-01-02T22:23:50.924Z,5.11
2018-01-02T22:26:18.517Z,5.02
2018-01-02T22:28:46.154Z,4.91
2018-01-02T22:31:13.784Z,4.86
2018-01-02T22:33:41.419Z,4.87
2018-01-02T22:36:09.455Z,4.82
2018-01-02T22:38:37.049Z,4.70
2018-01-02T22:41:05.709Z,4.61
2018-01-02T22:43:33.316Z,4.67
2018-01-02T22:46:00.931Z,4.69
2018-01-02T22:48:28.539Z,4.63
2018-01-02T22:50:56.170Z,4.53
2018-01-02T22:53:23.760Z,4.54
2018-01-02T22:55:51.398Z,4.61
2018-01-02T22:58:19.024Z,4.56
2018-01-02T23:00:46.618Z,4.37
2018-01-02T23:03:14.259Z,4.42
2018-01-02T23:05:41.837Z,4.38
2018-01-02T23:08:09.467Z,4.44
2018-01-02T23:10:37.072Z,4.23
2018-01-02T23:13:04.742Z,4.09
2018-01-02T23:15:32.380Z,4.14
2018-01-02T23:18:00.014Z,4.10
2018-01-02T23:20:27.596Z,4.15
2018-01-02T23:22:55.212Z,4.20
2018-01-02T23:25:22.808Z,4.15
2018-01-02T23:27:50.436Z,4.14
2018-01-02T23:30:18.023Z,4.08
2018-01-02T23:32:45.605Z,4.07
2018-01-02T23:35:13.226Z,4.08
2018-01-02T23:37:40.824Z,4.01
2018-01-02T23:40:08.461Z,4.00
2018-01-02T23:42:36.094Z,4.09
2018-01-02T23:45:04.117Z,4.15
2018-01-02T23:47:31.755Z,4.19
2018-01-02T23:49:59.362Z,4.23
2018-01-02T23:52:27.009Z,4.12
2018-01-02T23:54:54.638Z,4.11
2018-01-02T23:57:22.228Z,4.23
2018-01-02T23:59:49.878Z,4.27
